sensor_id;sensor_type;location;lat;lon;timestamp;P1;P2;P0
76045;PMS7003;64741;41.730;44.788;2024-01-15T00:02:54;1.8;1;0.6
76045;PMS7003;64741;41.730;44.788;2024-01-15T00:08:16;1.2;1;0.6
76045;PMS7003;64741;41.730;44.788;2024-01-15T00:23:14;0.8;0.4;0.2
76045;PMS7003;64741;41.730;44.788;2024-01-15T00:28:14;1.4;0.8;0.8
76045;PMS7003;64741;41.730;44.788;2024-01-15T00:33:12;1.4;1;1
76045;PMS7003;64741;41.730;44.788;2024-01-15T00:38:18;1.2;1.2;0.4
76045;PMS7003;64741;41.730;44.788;2024-01-15T00:43:14;2.4;1.4;0.4
76045;PMS7003;64741;41.730;44.788;2024-01-15T00:48:14;1.8;1;0.4
76045;PMS7003;64741;41.730;44.788;2024-01-15T00:53:08;1.6;1.2;0.6
76045;PMS7003;64741;41.730;44.788;2024-01-15T00:58:14;1;1;0.4
76045;PMS7003;64741;41.730;44.788;2024-01-15T01:03:00;1;0.8;0.4
76045;PMS7003;64741;41.730;44.788;2024-01-15T01:08:14;1.2;0.6;0.4
76045;PMS7003;64741;41.730;44.788;2024-01-15T01:13:14;1.6;0.8;0.6
76045;PMS7003;64741;41.730;44.788;2024-01-15T01:18:08;0.8;0.4;0.2
76045;PMS7003;64741;41.730;44.788;2024-01-15T01:23:14;1.2;1;0.2
76045;PMS7003;64741;41.730;44.788;2024-01-15T01:28:18;1.2;1;0.4
76045;PMS7003;64741;41.730;44.788;2024-01-15T01:33:06;1.8;1.2;0.6
76045;PMS7003;64741;41.730;44.788;2024-01-15T01:38:08;1;0.8;0.4
76045;PMS7003;64741;41.730;44.788;2024-01-15T01:43:16;1.5;1.3;0.5
76045;PMS7003;64741;41.730;44.788;2024-01-15T01:48:14;0.8;0.8;0.4
76045;PMS7003;64741;41.730;44.788;2024-01-15T01:53:02;0.8;0.4;0.2
76045;PMS7003;64741;41.730;44.788;2024-01-15T01:58:14;0.8;0.8;0.2
76045;PMS7003;64741;41.730;44.788;2024-01-15T02:03:12;0.8;0.8;0.4
76045;PMS7003;64741;41.730;44.788;2024-01-15T02:08:14;1;0.2;0.2
76045;PMS7003;64741;41.730;44.788;2024-01-15T02:13:17;1;0.6;0.2
76045;PMS7003;64741;41.730;44.788;2024-01-15T02:18:14;1.4;0.2;0
76045;PMS7003;64741;41.730;44.788;2024-01-15T02:23:13;0.6;0.2;0
76045;PMS7003;64741;41.730;44.788;2024-01-15T02:28:09;1;0.8;0.2
76045;PMS7003;64741;41.730;44.788;2024-01-15T02:33:04;0.6;0.2;0
76045;PMS7003;64741;41.730;44.788;2024-01-15T02:38:14;0.6;0.4;0
76045;PMS7003;64741;41.730;44.788;2024-01-15T02:43:12;0.2;0.2;0.2
76045;PMS7003;64741;41.730;44.788;2024-01-15T02:48:14;0.4;0.4;0.2
76045;PMS7003;64741;41.730;44.788;2024-01-15T02:53:14;0.4;0.4;0
76045;PMS7003;64741;41.730;44.788;2024-01-15T02:58:12;1;0.6;0
76045;PMS7003;64741;41.730;44.788;2024-01-15T03:03:18;1;0.4;0.2
76045;PMS7003;64741;41.730;44.788;2024-01-15T03:07:56;0.8;0.6;0.4
76045;PMS7003;64741;41.730;44.788;2024-01-15T03:13:08;1.2;0.8;0.4
76045;PMS7003;64741;41.730;44.788;2024-01-15T03:18:15;0.4;0.4;0.2
76045;PMS7003;64741;41.730;44.788;2024-01-15T03:23:14;0.6;0.6;0.4
76045;PMS7003;64741;41.730;44.788;2024-01-15T03:28:14;0.6;0.4;0.2
76045;PMS7003;64741;41.730;44.788;2024-01-15T03:33:14;1;1;0.2
76045;PMS7003;64741;41.730;44.788;2024-01-15T03:38:14;1;0.6;0.2
76045;PMS7003;64741;41.730;44.788;2024-01-15T03:43:13;0.2;0.2;0.2
76045;PMS7003;64741;41.730;44.788;2024-01-15T03:48:13;0.8;0.4;0.2
76045;PMS7003;64741;41.730;44.788;2024-01-15T03:53:06;0.4;0.4;0.4
76045;PMS7003;64741;41.730;44.788;2024-01-15T03:58:16;1.4;0.2;0.2
76045;PMS7003;64741;41.730;44.788;2024-01-15T04:03:06;1.6;1.2;0.4
76045;PMS7003;64741;41.730;44.788;2024-01-15T04:08:08;0.8;0.8;0.8
76045;PMS7003;64741;41.730;44.788;2024-01-15T04:13:18;1.2;0.8;0.4
76045;PMS7003;64741;41.730;44.788;2024-01-15T04:18:09;0.6;0.6;0.4
76045;PMS7003;64741;41.730;44.788;2024-01-15T04:23:09;1;1;0.6
76045;PMS7003;64741;41.730;44.788;2024-01-15T04:28:14;0.6;0.4;0.2
76045;PMS7003;64741;41.730;44.788;2024-01-15T04:33:14;1;0.8;0.2
76045;PMS7003;64741;41.730;44.788;2024-01-15T04:37:54;1;0.4;0.4
76045;PMS7003;64741;41.730;44.788;2024-01-15T04:43:17;1.4;1;0.8
76045;PMS7003;64741;41.730;44.788;2024-01-15T04:48:08;0.8;0.6;0.2
76045;PMS7003;64741;41.730;44.788;2024-01-15T04:53:18;0.8;0.6;0.4
76045;PMS7003;64741;41.730;44.788;2024-01-15T04:58:09;1.8;1;0.4
76045;PMS7003;64741;41.730;44.788;2024-01-15T05:03:16;1.6;1.2;0.4
76045;PMS7003;64741;41.730;44.788;2024-01-15T05:08:01;1;0.6;0.4
76045;PMS7003;64741;41.730;44.788;2024-01-15T05:13:14;1.2;1.2;0.4
76045;PMS7003;64741;41.730;44.788;2024-01-15T05:18:18;1.8;1.2;0.6
76045;PMS7003;64741;41.730;44.788;2024-01-15T05:23:15;1.4;1.2;0.8
76045;PMS7003;64741;41.730;44.788;2024-01-15T05:28:14;0.6;0.6;0.4
76045;PMS7003;64741;41.730;44.788;2024-01-15T05:33:17;0.8;0.6;0.4
76045;PMS7003;64741;41.730;44.788;2024-01-15T05:38:16;1.4;1;0.4
76045;PMS7003;64741;41.730;44.788;2024-01-15T05:43:09;0.2;0.2;0.2
76045;PMS7003;64741;41.730;44.788;2024-01-15T05:48:17;1;0.6;0.4
76045;PMS7003;64741;41.730;44.788;2024-01-15T05:52:59;1.6;1;0.6
76045;PMS7003;64741;41.730;44.788;2024-01-15T05:58:15;0.6;0.6;0.6
76045;PMS7003;64741;41.730;44.788;2024-01-15T06:03:15;1.4;0.8;0.4
76045;PMS7003;64741;41.730;44.788;2024-01-15T06:08:13;0.8;0.6;0.6
76045;PMS7003;64741;41.730;44.788;2024-01-15T06:13:15;1.4;0.8;0.4
76045;PMS7003;64741;41.730;44.788;2024-01-15T06:18:07;1.3;1;0.5
76045;PMS7003;64741;41.730;44.788;2024-01-15T06:23:15;1.4;1;0.8
76045;PMS7003;64741;41.730;44.788;2024-01-15T06:28:17;2.2;1.4;0.8
76045;PMS7003;64741;41.730;44.788;2024-01-15T06:33:10;1.2;1;0.8
76045;PMS7003;64741;41.730;44.788;2024-01-15T06:38:09;0.8;0.8;0.4
76045;PMS7003;64741;41.730;44.788;2024-01-15T06:43:19;2;2;1.4
76045;PMS7003;64741;41.730;44.788;2024-01-15T06:48:15;2.6;2;1.6
76045;PMS7003;64741;41.730;44.788;2024-01-15T06:53:13;2.4;2;1.6
76045;PMS7003;64741;41.730;44.788;2024-01-15T06:58:15;5.8;5.4;4.4
76045;PMS7003;64741;41.730;44.788;2024-01-15T07:03:13;5.2;4.2;3
76045;PMS7003;64741;41.730;44.788;2024-01-15T07:08:15;4.2;3.4;2.6
76045;PMS7003;64741;41.730;44.788;2024-01-15T07:13:01;5.8;5;3.8
76045;PMS7003;64741;41.730;44.788;2024-01-15T07:18:15;25.6;22.8;16.4
76045;PMS7003;64741;41.730;44.788;2024-01-15T07:23:03;33.2;29;20.2
76045;PMS7003;64741;41.730;44.788;2024-01-15T07:28:07;44.2;35.4;23.6
76045;PMS7003;64741;41.730;44.788;2024-01-15T07:33:19;71.6;59;40.2
76045;PMS7003;64741;41.730;44.788;2024-01-15T07:38:15;85.8;76.8;52.8
76045;PMS7003;64741;41.730;44.788;2024-01-15T07:43:16;80.8;67.8;45.6
76045;PMS7003;64741;41.730;44.788;2024-01-15T07:48:01;77.4;67.6;44.8
76045;PMS7003;64741;41.730;44.788;2024-01-15T07:53:15;74.6;60;40.6
76045;PMS7003;64741;41.730;44.788;2024-01-15T07:57:59;72;55.6;38.4
76045;PMS7003;64741;41.730;44.788;2024-01-15T08:03:19;71.2;56;36.8
76045;PMS7003;64741;41.730;44.788;2024-01-15T08:08:18;67.8;52.4;35.2
76045;PMS7003;64741;41.730;44.788;2024-01-15T08:13:09;69.4;54.4;36.6
76045;PMS7003;64741;41.730;44.788;2024-01-15T08:18:15;66.8;52.2;36
76045;PMS7003;64741;41.730;44.788;2024-01-15T08:23:15;68.4;53.6;37
76045;PMS7003;64741;41.730;44.788;2024-01-15T08:28:13;91;78;51.4
76045;PMS7003;64741;41.730;44.788;2024-01-15T08:33:13;83;71;46.3
76045;PMS7003;64741;41.730;44.788;2024-01-15T08:38:13;77.4;64;43
76045;PMS7003;64741;41.730;44.788;2024-01-15T08:43:13;73.6;58.8;40.8
76045;PMS7003;64741;41.730;44.788;2024-01-15T08:48:15;71.4;56;38
76045;PMS7003;64741;41.730;44.788;2024-01-15T08:53:09;69.2;54.4;36
76045;PMS7003;64741;41.730;44.788;2024-01-15T08:58:19;67;51.8;34.8
76045;PMS7003;64741;41.730;44.788;2024-01-15T09:03:09;65;49.8;33
76045;PMS7003;64741;41.730;44.788;2024-01-15T09:08:07;63.8;49.2;32.4
76045;PMS7003;64741;41.730;44.788;2024-01-15T09:13:17;63.4;49.2;32.4
76045;PMS7003;64741;41.730;44.788;2024-01-15T09:18:09;58.2;45.6;30.2
76045;PMS7003;64741;41.730;44.788;2024-01-15T09:23:07;61.6;45.4;31
76045;PMS7003;64741;41.730;44.788;2024-01-15T09:28:15;56.6;44.2;29.4
76045;PMS7003;64741;41.730;44.788;2024-01-15T09:33:15;59.8;46.2;30.8
76045;PMS7003;64741;41.730;44.788;2024-01-15T09:38:13;65;51.8;35
76045;PMS7003;64741;41.730;44.788;2024-01-15T09:43:19;75.6;61;43.6
76045;PMS7003;64741;41.730;44.788;2024-01-15T09:48:09;69;53;36
76045;PMS7003;64741;41.730;44.788;2024-01-15T09:53:19;70.6;55.6;39.6
76045;PMS7003;64741;41.730;44.788;2024-01-15T09:58:07;74.8;60.4;43.2
76045;PMS7003;64741;41.730;44.788;2024-01-15T10:03:15;73;58.6;40.2
76045;PMS7003;64741;41.730;44.788;2024-01-15T10:08:01;68.8;54.4;38.2
76045;PMS7003;64741;41.730;44.788;2024-01-15T10:13:13;69.4;54;36.4
76045;PMS7003;64741;41.730;44.788;2024-01-15T10:18:19;67.2;52.2;36.2
76045;PMS7003;64741;41.730;44.788;2024-01-15T10:23:17;67.4;52.2;36.8
76045;PMS7003;64741;41.730;44.788;2024-01-15T10:28:15;68.2;53;37.2
76045;PMS7003;64741;41.730;44.788;2024-01-15T10:33:19;67.2;51.8;37.6
76045;PMS7003;64741;41.730;44.788;2024-01-15T10:38:17;65.6;51;36
76045;PMS7003;64741;41.730;44.788;2024-01-15T10:43:09;65;50.6;36.8
76045;PMS7003;64741;41.730;44.788;2024-01-15T10:48:19;64.6;50.4;35.4
76045;PMS7003;64741;41.730;44.788;2024-01-15T10:53:09;63.8;49.6;34.4
76045;PMS7003;64741;41.730;44.788;2024-01-15T10:58:15;65.6;51.2;37
76045;PMS7003;64741;41.730;44.788;2024-01-15T11:03:15;63.2;48.8;35
76045;PMS7003;64741;41.730;44.788;2024-01-15T11:08:16;63.8;50.6;36.2
76045;PMS7003;64741;41.730;44.788;2024-01-15T11:13:13;65;50.6;35.4
76045;PMS7003;64741;41.730;44.788;2024-01-15T11:18:09;65.2;50.2;35.4
76045;PMS7003;64741;41.730;44.788;2024-01-15T11:23:14;64;50;34.4
76045;PMS7003;64741;41.730;44.788;2024-01-15T11:28:30;62;48.4;33.8
76045;PMS7003;64741;41.730;44.788;2024-01-15T11:33:13;58.4;46;32.4
76045;PMS7003;64741;41.730;44.788;2024-01-15T11:38:09;57.4;44.8;31.8
76045;PMS7003;64741;41.730;44.788;2024-01-15T11:43:17;55.2;44.2;31.4
76045;PMS7003;64741;41.730;44.788;2024-01-15T11:48:13;53.8;42.8;30.6
76045;PMS7003;64741;41.730;44.788;2024-01-15T11:53:15;51.8;41.8;29.6
76045;PMS7003;64741;41.730;44.788;2024-01-15T11:58:13;51.2;41.4;29
76045;PMS7003;64741;41.730;44.788;2024-01-15T12:03:13;48.8;39.4;27.8
76045;PMS7003;64741;41.730;44.788;2024-01-15T12:07:44;48.6;39.2;28.2
76045;PMS7003;64741;41.730;44.788;2024-01-15T12:13:17;75.4;62.6;43.2
76045;PMS7003;64741;41.730;44.788;2024-01-15T12:18:12;96.8;85.8;59
76045;PMS7003;64741;41.730;44.788;2024-01-15T12:23:13;98.4;85.8;58.4
76045;PMS7003;64741;41.730;44.788;2024-01-15T12:28:07;102.2;87.6;58.4
76045;PMS7003;64741;41.730;44.788;2024-01-15T12:33:17;94.8;83.8;57.6
76045;PMS7003;64741;41.730;44.788;2024-01-15T12:38:13;90.6;81.2;54.8
76045;PMS7003;64741;41.730;44.788;2024-01-15T12:42:37;88;78;52.4
76045;PMS7003;64741;41.730;44.788;2024-01-15T12:48:13;84.4;73.8;49.6
76045;PMS7003;64741;41.730;44.788;2024-01-15T12:53:13;81.2;69.2;46.4
76045;PMS7003;64741;41.730;44.788;2024-01-15T12:58:13;78;66.4;44.6
76045;PMS7003;64741;41.730;44.788;2024-01-15T13:02:27;77.6;66.4;44.6
76045;PMS7003;64741;41.730;44.788;2024-01-15T13:08:17;76;63.4;42.8
76045;PMS7003;64741;41.730;44.788;2024-01-15T13:13:09;74;59.8;39.8
76045;PMS7003;64741;41.730;44.788;2024-01-15T13:18:13;72;58.6;40
76045;PMS7003;64741;41.730;44.788;2024-01-15T13:22:55;71;54.2;36.8
76045;PMS7003;64741;41.730;44.788;2024-01-15T13:28:13;70.8;55.4;36.8
76045;PMS7003;64741;41.730;44.788;2024-01-15T13:33:13;68.8;54;36.2
76045;PMS7003;64741;41.730;44.788;2024-01-15T13:38:11;68.6;52.4;35.4
76045;PMS7003;64741;41.730;44.788;2024-01-15T13:43:11;67.3;52.3;34.8
76045;PMS7003;64741;41.730;44.788;2024-01-15T13:48:13;64.2;48.8;33
76045;PMS7003;64741;41.730;44.788;2024-01-15T13:53:09;61;47.6;32.2
76045;PMS7003;64741;41.730;44.788;2024-01-15T13:58:17;64.2;49.2;33.2
76045;PMS7003;64741;41.730;44.788;2024-01-15T14:03:07;61.8;47;31.8
76045;PMS7003;64741;41.730;44.788;2024-01-15T14:08:09;59.8;46;31
76045;PMS7003;64741;41.730;44.788;2024-01-15T14:12:57;58.6;45.4;30
76045;PMS7003;64741;41.730;44.788;2024-01-15T14:18:09;59.6;45.6;30.8
76045;PMS7003;64741;41.730;44.788;2024-01-15T14:23:09;56.8;44.4;29
76045;PMS7003;64741;41.730;44.788;2024-01-15T14:28:13;53.8;42;28.6
76045;PMS7003;64741;41.730;44.788;2024-01-15T14:33:11;55.6;42.8;28.4
76045;PMS7003;64741;41.730;44.788;2024-01-15T14:38:17;55.4;43.6;28.8
76045;PMS7003;64741;41.730;44.788;2024-01-15T14:43:11;50.4;40;27.2
76045;PMS7003;64741;41.730;44.788;2024-01-15T14:48:13;51.4;40.8;27.4
76045;PMS7003;64741;41.730;44.788;2024-01-15T14:53:13;51.8;39.4;27
76045;PMS7003;64741;41.730;44.788;2024-01-15T14:58:13;47.6;37.8;26
76045;PMS7003;64741;41.730;44.788;2024-01-15T15:03:13;48.2;37.8;25.4
76045;PMS7003;64741;41.730;44.788;2024-01-15T15:08:07;47.6;37.4;25.4
76045;PMS7003;64741;41.730;44.788;2024-01-15T15:13:17;43.2;34.8;23.8
76045;PMS7003;64741;41.730;44.788;2024-01-15T15:18:09;42.6;33.8;22.8
76045;PMS7003;64741;41.730;44.788;2024-01-15T15:23:07;41;33;22.2
76045;PMS7003;64741;41.730;44.788;2024-01-15T15:28:17;41;33.4;22.6
76045;PMS7003;64741;41.730;44.788;2024-01-15T15:32:55;39;31.6;22.2
76045;PMS7003;64741;41.730;44.788;2024-01-15T15:38:09;36.8;31;21
76045;PMS7003;64741;41.730;44.788;2024-01-15T15:43:13;34.8;29.6;20.6
76045;PMS7003;64741;41.730;44.788;2024-01-15T15:48:13;34.2;28;20
76045;PMS7003;64741;41.730;44.788;2024-01-15T15:53:13;32.8;29;20
76045;PMS7003;64741;41.730;44.788;2024-01-15T15:58:17;34.8;29.6;20.6
76045;PMS7003;64741;41.730;44.788;2024-01-15T16:03:09;30.2;27;19.4
76045;PMS7003;64741;41.730;44.788;2024-01-15T16:08:01;27.2;23.6;17
76045;PMS7003;64741;41.730;44.788;2024-01-15T16:13:09;27.4;22.8;15.6
76045;PMS7003;64741;41.730;44.788;2024-01-15T16:18:17;23.6;20.4;14
76045;PMS7003;64741;41.730;44.788;2024-01-15T16:23:13;28.2;23;17.2
76045;PMS7003;64741;41.730;44.788;2024-01-15T16:28:13;25.8;23;17
76045;PMS7003;64741;41.730;44.788;2024-01-15T16:33:15;24.4;21;16
76045;PMS7003;64741;41.730;44.788;2024-01-15T16:38:17;25.8;22.4;17.2
76045;PMS7003;64741;41.730;44.788;2024-01-15T16:43:13;23.6;19.8;14.4
76045;PMS7003;64741;41.730;44.788;2024-01-15T16:48:17;23.8;21.4;15
76045;PMS7003;64741;41.730;44.788;2024-01-15T16:53:17;23;19.8;15.2
76045;PMS7003;64741;41.730;44.788;2024-01-15T16:58:07;21.2;19.2;13.8
76045;PMS7003;64741;41.730;44.788;2024-01-15T17:03:17;20.6;18.4;13
76045;PMS7003;64741;41.730;44.788;2024-01-15T17:08:07;22.4;19.4;14.2
76045;PMS7003;64741;41.730;44.788;2024-01-15T17:13:07;22.8;19;13.6
76045;PMS7003;64741;41.730;44.788;2024-01-15T17:18:13;20.6;17.8;13.6
76045;PMS7003;64741;41.730;44.788;2024-01-15T17:23:13;19.8;17;12.8
76045;PMS7003;64741;41.730;44.788;2024-01-15T17:27:53;18.8;17.2;12.4
76045;PMS7003;64741;41.730;44.788;2024-01-15T17:33:07;17;15;12
76045;PMS7003;64741;41.730;44.788;2024-01-15T17:38:13;17.8;15.6;12
76045;PMS7003;64741;41.730;44.788;2024-01-15T17:43:17;19.2;16;12
76045;PMS7003;64741;41.730;44.788;2024-01-15T17:48:09;18;16.8;11.8
76045;PMS7003;64741;41.730;44.788;2024-01-15T17:53:09;18.4;15.4;11
76045;PMS7003;64741;41.730;44.788;2024-01-15T17:58:17;17.2;14;10
76045;PMS7003;64741;41.730;44.788;2024-01-15T18:03:13;17.4;15.8;11.6
76045;PMS7003;64741;41.730;44.788;2024-01-15T18:08:13;15.2;13.6;10.4
76045;PMS7003;64741;41.730;44.788;2024-01-15T18:13:05;14.2;12;8.8
76045;PMS7003;64741;41.730;44.788;2024-01-15T18:18:13;16.4;13.8;10.4
76045;PMS7003;64741;41.730;44.788;2024-01-15T18:23:14;14;12;8.6
76045;PMS7003;64741;41.730;44.788;2024-01-15T18:28:17;13.2;12.6;9.4
76045;PMS7003;64741;41.730;44.788;2024-01-15T18:33:13;13.8;12.4;9.4
76045;PMS7003;64741;41.730;44.788;2024-01-15T18:38:13;15;12.4;9.4
76045;PMS7003;64741;41.730;44.788;2024-01-15T18:43:07;13.2;11.6;8.2
76045;PMS7003;64741;41.730;44.788;2024-01-15T18:48:18;11.6;10.6;8.2
76045;PMS7003;64741;41.730;44.788;2024-01-15T18:53:13;11.8;10.8;7.5
76045;PMS7003;64741;41.730;44.788;2024-01-15T18:58:13;13.8;12.8;9.6
76045;PMS7003;64741;41.730;44.788;2024-01-15T19:03:13;11;9.6;7.6
76045;PMS7003;64741;41.730;44.788;2024-01-15T19:07:55;13.2;11.2;8.6
76045;PMS7003;64741;41.730;44.788;2024-01-15T19:13:09;11.8;10.8;8
76045;PMS7003;64741;41.730;44.788;2024-01-15T19:18:13;10.8;8.8;6.8
76045;PMS7003;64741;41.730;44.788;2024-01-15T19:23:11;11.2;10;7.2
76045;PMS7003;64741;41.730;44.788;2024-01-15T19:28:07;11;9.6;7.6
76045;PMS7003;64741;41.730;44.788;2024-01-15T19:33:11;13.2;10.4;7.8
76045;PMS7003;64741;41.730;44.788;2024-01-15T19:38:11;11;9.4;7
76045;PMS7003;64741;41.730;44.788;2024-01-15T19:43:09;11.8;9.6;7.6
76045;PMS7003;64741;41.730;44.788;2024-01-15T19:48:11;9.4;8.8;6.2
76045;PMS7003;64741;41.730;44.788;2024-01-15T19:53:09;8.8;8.4;6.8
76045;PMS7003;64741;41.730;44.788;2024-01-15T19:58:09;9.6;8.4;6.2
76045;PMS7003;64741;41.730;44.788;2024-01-15T20:03:13;10.6;8.2;6.4
76045;PMS7003;64741;41.730;44.788;2024-01-15T20:08:09;11.2;9.8;7.4
76045;PMS7003;64741;41.730;44.788;2024-01-15T20:13:11;10.8;8.8;6.2
76045;PMS7003;64741;41.730;44.788;2024-01-15T20:18:09;11.2;9.2;6.6
76045;PMS7003;64741;41.730;44.788;2024-01-15T20:23:13;11.2;9.6;7.4
76045;PMS7003;64741;41.730;44.788;2024-01-15T20:28:09;10.8;9;6.4
76045;PMS7003;64741;41.730;44.788;2024-01-15T20:33:11;9.2;8;5.6
76045;PMS7003;64741;41.730;44.788;2024-01-15T20:38:11;9;7.6;5
76045;PMS7003;64741;41.730;44.788;2024-01-15T20:43:11;10.6;8.4;6
76045;PMS7003;64741;41.730;44.788;2024-01-15T20:47:49;10.2;9.4;6.4
76045;PMS7003;64741;41.730;44.788;2024-01-15T20:53:14;10.2;7.8;5.6
76045;PMS7003;64741;41.730;44.788;2024-01-15T20:58:13;9.4;7.6;5.8
76045;PMS7003;64741;41.730;44.788;2024-01-15T21:03:07;9.2;7.8;5.6
76045;PMS7003;64741;41.730;44.788;2024-01-15T21:08:11;7;6.4;5
76045;PMS7003;64741;41.730;44.788;2024-01-15T21:13:11;9;7.4;5.4
76045;PMS7003;64741;41.730;44.788;2024-01-15T21:18:09;7.8;6.4;4.8
76045;PMS7003;64741;41.730;44.788;2024-01-15T21:23:11;8.8;7.2;5.2
76045;PMS7003;64741;41.730;44.788;2024-01-15T21:28:11;8.8;7.2;5.4
76045;PMS7003;64741;41.730;44.788;2024-01-15T21:33:09;6.8;6.2;4.8
76045;PMS7003;64741;41.730;44.788;2024-01-15T21:38:11;7.6;6;4.2
76045;PMS7003;64741;41.730;44.788;2024-01-15T21:43:05;7.8;6;4.8
76045;PMS7003;64741;41.730;44.788;2024-01-15T21:48:15;7.4;7.2;4.6
76045;PMS7003;64741;41.730;44.788;2024-01-15T21:53:07;7;6.2;5
76045;PMS7003;64741;41.730;44.788;2024-01-15T21:58:07;8;6.8;4.8
76045;PMS7003;64741;41.730;44.788;2024-01-15T22:03:13;7.4;5.8;4.4
76045;PMS7003;64741;41.730;44.788;2024-01-15T22:08:09;8;7.4;5.4
76045;PMS7003;64741;41.730;44.788;2024-01-15T22:13:07;7.2;6.4;4.4
76045;PMS7003;64741;41.730;44.788;2024-01-15T22:18:11;6.6;5.4;4
76045;PMS7003;64741;41.730;44.788;2024-01-15T22:23:09;7.4;6.4;4.6
76045;PMS7003;64741;41.730;44.788;2024-01-15T22:28:09;6;5.2;4
76045;PMS7003;64741;41.730;44.788;2024-01-15T22:33:11;6.8;5.6;4.2
76045;PMS7003;64741;41.730;44.788;2024-01-15T22:38:07;5.2;4.6;3.4
76045;PMS7003;64741;41.730;44.788;2024-01-15T22:43:13;4.6;4;2.8
76045;PMS7003;64741;41.730;44.788;2024-01-15T22:48:05;5.6;4.4;3.6
76045;PMS7003;64741;41.730;44.788;2024-01-15T22:53:15;5.2;4.4;2.8
76045;PMS7003;64741;41.730;44.788;2024-01-15T22:58:09;5.6;4.4;3.2
76045;PMS7003;64741;41.730;44.788;2024-01-15T23:03:11;5;3.4;2.6
76045;PMS7003;64741;41.730;44.788;2024-01-15T23:08:13;5.2;4;3.4
76045;PMS7003;64741;41.730;44.788;2024-01-15T23:13:14;5.8;4.6;3.2
76045;PMS7003;64741;41.730;44.788;2024-01-15T23:18:09;5.8;5.2;3.8
76045;PMS7003;64741;41.730;44.788;2024-01-15T23:23:13;4.6;4.2;3.2
76045;PMS7003;64741;41.730;44.788;2024-01-15T23:28:13;5;4.6;3.6
76045;PMS7003;64741;41.730;44.788;2024-01-15T23:33:07;5.8;4.6;3.8
76045;PMS7003;64741;41.730;44.788;2024-01-15T23:38:13;5;4;3.4
76045;PMS7003;64741;41.730;44.788;2024-01-15T23:43:09;6.4;5.6;4.4
76045;PMS7003;64741;41.730;44.788;2024-01-15T23:48:11;5.6;4.6;3.4
76045;PMS7003;64741;41.730;44.788;2024-01-15T23:53:11;6;4.8;3.6
76045;PMS7003;64741;41.730;44.788;2024-01-15T23:58:11;5.6;5;3.8
